THY5QF LIPZ-LTFM
Flight info
| Callsign | THY5QF |
|---|---|
| Flight time | 1h 49m |
| Altitude | 41000 |
| Route | ROSKA T132 ROTAR DCT NISVA DCT DEDIN L614 GERGI T391 AYTEK |
| Aircraft | A359/H-SDE2E3GHIJ3J4J5LM1ORWXY/LB1D1 |
Departure
| Time | 2026-05-07 12:18 |
|---|---|
| Airport | Venice Marco Polo Airport (LIPZ) |
Arrival
| Time | 2026-05-07 14:07 |
|---|---|
| Airport | İstanbul Airport (LTFM) |
| Time | Latitude | Longitude | Altitude | Speed | Heading |
|---|---|---|---|---|---|
| 2026-05-07 11:43 | 45.50361 | 12.34186 | 26 ft | 0 kts | 290° |
| 2026-05-07 12:07 | 45.50371 | 12.34150 | 37 ft | 4 kts | 290° |
| 2026-05-07 12:07 | 45.50371 | 12.34147 | 39 ft | 0 kts | 290° |
| 2026-05-07 12:08 | 45.50361 | 12.34187 | 22 ft | 0 kts | 289° |
| 2026-05-07 12:10 | 45.50354 | 12.34217 | 24 ft | 4 kts | 289° |
| 2026-05-07 12:11 | 45.50345 | 12.34253 | 27 ft | 4 kts | 289° |
| 2026-05-07 12:11 | 45.50336 | 12.34287 | 26 ft | 3 kts | 289° |
| 2026-05-07 12:11 | 45.50331 | 12.34322 | 26 ft | 4 kts | 253° |
| 2026-05-07 12:11 | 45.50345 | 12.34347 | 25 ft | 4 kts | 194° |
| 2026-05-07 12:12 | 45.50372 | 12.34350 | 24 ft | 3 kts | 177° |
| 2026-05-07 12:12 | 45.50376 | 12.34350 | 24 ft | 0 kts | 177° |
| 2026-05-07 12:14 | 45.50375 | 12.34350 | 24 ft | 1 kts | 177° |
| 2026-05-07 12:14 | 45.50332 | 12.34352 | 27 ft | 10 kts | 177° |
| 2026-05-07 12:14 | 45.50239 | 12.34359 | 26 ft | 15 kts | 177° |
| 2026-05-07 12:15 | 45.50127 | 12.34337 | 23 ft | 17 kts | 211° |
| 2026-05-07 12:15 | 45.50033 | 12.34221 | 23 ft | 20 kts | 221° |
| 2026-05-07 12:15 | 45.49921 | 12.34080 | 24 ft | 22 kts | 225° |
| 2026-05-07 12:15 | 45.49804 | 12.33924 | 23 ft | 24 kts | 222° |
| 2026-05-07 12:16 | 45.49678 | 12.33763 | 26 ft | 25 kts | 221° |
| 2026-05-07 12:16 | 45.49585 | 12.33643 | 25 ft | 16 kts | 223° |
| 2026-05-07 12:16 | 45.49531 | 12.33601 | 25 ft | 6 kts | 183° |
| 2026-05-07 12:16 | 45.49499 | 12.33624 | 26 ft | 7 kts | 149° |
| 2026-05-07 12:17 | 45.49454 | 12.33685 | 24 ft | 11 kts | 131° |
| 2026-05-07 12:17 | 45.49416 | 12.33761 | 25 ft | 2 kts | 93° |
| 2026-05-07 12:17 | 45.49427 | 12.33789 | 26 ft | 5 kts | 56° |
| 2026-05-07 12:17 | 45.49466 | 12.33841 | 23 ft | 16 kts | 41° |
| 2026-05-07 12:18 | 45.49758 | 12.34218 | 22 ft | 97 kts | 42° |
| 2026-05-07 12:18 | 45.50437 | 12.35091 | 24 ft | 164 kts | 42° |
| 2026-05-07 12:18 | 45.51372 | 12.36248 | 529 ft | 180 kts | 40° |
| 2026-05-07 12:18 | 45.52302 | 12.37431 | 1395 ft | 182 kts | 40° |
| 2026-05-07 12:19 | 45.53255 | 12.38768 | 1716 ft | 202 kts | 46° |
| 2026-05-07 12:19 | 45.53869 | 12.40644 | 1938 ft | 221 kts | 85° |
| 2026-05-07 12:19 | 45.53643 | 12.42817 | 2658 ft | 221 kts | 103° |
| 2026-05-07 12:19 | 45.53305 | 12.44953 | 3940 ft | 223 kts | 102° |
| 2026-05-07 12:20 | 45.53041 | 12.47157 | 5257 ft | 228 kts | 100° |
| 2026-05-07 12:20 | 45.52814 | 12.49391 | 6443 ft | 227 kts | 101° |
| 2026-05-07 12:20 | 45.52580 | 12.51604 | 7213 ft | 225 kts | 99° |
| 2026-05-07 12:20 | 45.52282 | 12.53809 | 7780 ft | 228 kts | 109° |
| 2026-05-07 12:21 | 45.51490 | 12.55780 | 8211 ft | 236 kts | 130° |
| 2026-05-07 12:21 | 45.50353 | 12.57594 | 8518 ft | 255 kts | 135° |
| 2026-05-07 12:21 | 45.49080 | 12.59491 | 8810 ft | 274 kts | 135° |
| 2026-05-07 12:21 | 45.47737 | 12.61497 | 9285 ft | 284 kts | 135° |
| 2026-05-07 12:22 | 45.46368 | 12.63563 | 9925 ft | 290 kts | 136° |
| 2026-05-07 12:22 | 45.44964 | 12.65688 | 10342 ft | 302 kts | 136° |
| 2026-05-07 12:22 | 45.43484 | 12.67932 | 10614 ft | 319 kts | 136° |
| 2026-05-07 12:22 | 45.41930 | 12.70295 | 10900 ft | 334 kts | 135° |
| 2026-05-07 12:23 | 45.40325 | 12.72736 | 11379 ft | 341 kts | 136° |
| 2026-05-07 12:23 | 45.38694 | 12.75211 | 12007 ft | 345 kts | 136° |
| 2026-05-07 12:23 | 45.37047 | 12.77711 | 12640 ft | 348 kts | 136° |
| 2026-05-07 12:23 | 45.35388 | 12.80229 | 13243 ft | 351 kts | 136° |
| 2026-05-07 12:24 | 45.33711 | 12.82771 | 13836 ft | 354 kts | 136° |
| 2026-05-07 12:24 | 45.32037 | 12.85354 | 14391 ft | 358 kts | 133° |
| 2026-05-07 12:24 | 45.30562 | 12.88240 | 14957 ft | 364 kts | 125° |
| 2026-05-07 12:24 | 45.29254 | 12.91353 | 15544 ft | 369 kts | 122° |
| 2026-05-07 12:25 | 45.28032 | 12.94586 | 16064 ft | 374 kts | 120° |
| 2026-05-07 12:25 | 45.26879 | 12.97917 | 16587 ft | 379 kts | 116° |
| 2026-05-07 12:25 | 45.25996 | 13.01471 | 17098 ft | 385 kts | 109° |
| 2026-05-07 12:25 | 45.25247 | 13.05134 | 17617 ft | 389 kts | 108° |
| 2026-05-07 12:26 | 45.24552 | 13.08866 | 18106 ft | 393 kts | 107° |
| 2026-05-07 12:26 | 45.23876 | 13.12648 | 18553 ft | 397 kts | 107° |
| 2026-05-07 12:26 | 45.23199 | 13.16461 | 18990 ft | 400 kts | 107° |
| 2026-05-07 12:26 | 45.22520 | 13.20255 | 19419 ft | 403 kts | 108° |
| 2026-05-07 12:27 | 45.21819 | 13.24120 | 19845 ft | 406 kts | 108° |
| 2026-05-07 12:27 | 45.21104 | 13.28009 | 20265 ft | 409 kts | 109° |
| 2026-05-07 12:27 | 45.20379 | 13.31922 | 20688 ft | 412 kts | 109° |
| 2026-05-07 12:27 | 45.19645 | 13.35863 | 21096 ft | 415 kts | 109° |
| 2026-05-07 12:28 | 45.18901 | 13.39839 | 21508 ft | 418 kts | 109° |
| 2026-05-07 12:28 | 45.18151 | 13.43840 | 21901 ft | 421 kts | 110° |
| 2026-05-07 12:28 | 45.17385 | 13.47922 | 22314 ft | 424 kts | 110° |
| 2026-05-07 12:28 | 45.16633 | 13.51918 | 22696 ft | 427 kts | 110° |
| 2026-05-07 12:29 | 45.15863 | 13.56004 | 23056 ft | 431 kts | 110° |
| 2026-05-07 12:29 | 45.15086 | 13.60120 | 23380 ft | 434 kts | 110° |
| 2026-05-07 12:29 | 45.14301 | 13.64267 | 23743 ft | 437 kts | 110° |
| 2026-05-07 12:29 | 45.13512 | 13.68432 | 24077 ft | 439 kts | 110° |
| 2026-05-07 12:30 | 45.12716 | 13.72626 | 24425 ft | 442 kts | 110° |
| 2026-05-07 12:30 | 45.11917 | 13.76833 | 24771 ft | 443 kts | 110° |
| 2026-05-07 12:30 | 45.11111 | 13.81059 | 25109 ft | 446 kts | 111° |
| 2026-05-07 12:30 | 45.10301 | 13.85300 | 25483 ft | 447 kts | 111° |
| 2026-05-07 12:31 | 45.09484 | 13.89561 | 25862 ft | 449 kts | 111° |
| 2026-05-07 12:31 | 45.08662 | 13.93839 | 26216 ft | 452 kts | 111° |
| 2026-05-07 12:31 | 45.07837 | 13.98126 | 26735 ft | 452 kts | 111° |
| 2026-05-07 12:31 | 45.07007 | 14.02424 | 27200 ft | 454 kts | 111° |
| 2026-05-07 12:32 | 45.06159 | 14.06742 | 27632 ft | 456 kts | 112° |
| 2026-05-07 12:32 | 45.05298 | 14.11073 | 28112 ft | 459 kts | 112° |
| 2026-05-07 12:32 | 45.04433 | 14.15427 | 28601 ft | 461 kts | 112° |
| 2026-05-07 12:32 | 45.03566 | 14.19807 | 29056 ft | 464 kts | 112° |
| 2026-05-07 12:33 | 45.01826 | 14.28652 | 29953 ft | 470 kts | 112° |
| 2026-05-07 12:33 | 45.00953 | 14.33105 | 30349 ft | 471 kts | 112° |
| 2026-05-07 12:33 | 45.00075 | 14.37577 | 30722 ft | 474 kts | 112° |
| 2026-05-07 12:34 | 44.99186 | 14.42094 | 31043 ft | 479 kts | 112° |
| 2026-05-07 12:34 | 44.98288 | 14.46644 | 31368 ft | 483 kts | 112° |
| 2026-05-07 12:34 | 44.97380 | 14.51232 | 31730 ft | 486 kts | 112° |
| 2026-05-07 12:34 | 44.96466 | 14.55847 | 32071 ft | 490 kts | 112° |
| 2026-05-07 12:35 | 44.95542 | 14.60497 | 32401 ft | 494 kts | 112° |
| 2026-05-07 12:35 | 44.94608 | 14.65183 | 32677 ft | 498 kts | 112° |
| 2026-05-07 12:35 | 44.93667 | 14.69899 | 33059 ft | 500 kts | 111° |
| 2026-05-07 12:35 | 44.92719 | 14.74633 | 33471 ft | 503 kts | 111° |
| 2026-05-07 12:36 | 44.91763 | 14.79397 | 33796 ft | 507 kts | 111° |
| 2026-05-07 12:36 | 44.90798 | 14.84198 | 34144 ft | 510 kts | 111° |
| 2026-05-07 12:36 | 44.89827 | 14.89019 | 34387 ft | 513 kts | 111° |
| 2026-05-07 12:36 | 44.88847 | 14.93870 | 34666 ft | 514 kts | 111° |
| 2026-05-07 12:37 | 44.87869 | 14.98709 | 35083 ft | 513 kts | 111° |
| 2026-05-07 12:37 | 44.86890 | 15.03540 | 35481 ft | 512 kts | 111° |
| 2026-05-07 12:37 | 44.85910 | 15.08361 | 35860 ft | 512 kts | 111° |
| 2026-05-07 12:37 | 44.84925 | 15.13188 | 36157 ft | 513 kts | 111° |
| 2026-05-07 12:38 | 44.83937 | 15.18013 | 36535 ft | 512 kts | 111° |
| 2026-05-07 12:38 | 44.82951 | 15.22821 | 36922 ft | 511 kts | 111° |
| 2026-05-07 12:38 | 44.81961 | 15.27632 | 37299 ft | 511 kts | 110° |
| 2026-05-07 12:38 | 44.80974 | 15.32429 | 37653 ft | 510 kts | 110° |
| 2026-05-07 12:39 | 44.79984 | 15.37223 | 37946 ft | 510 kts | 110° |
| 2026-05-07 12:39 | 44.78991 | 15.42017 | 38300 ft | 510 kts | 110° |
| 2026-05-07 12:39 | 44.78333 | 15.45191 | 38505 ft | 510 kts | 110° |
| 2026-05-07 12:39 | 44.77336 | 15.49986 | 38764 ft | 511 kts | 110° |
| 2026-05-07 12:40 | 44.76338 | 15.54776 | 39006 ft | 510 kts | 110° |
| 2026-05-07 12:40 | 44.75337 | 15.59566 | 39268 ft | 510 kts | 110° |
| 2026-05-07 12:40 | 44.74337 | 15.64345 | 39514 ft | 509 kts | 110° |
| 2026-05-07 12:40 | 44.73336 | 15.69117 | 39761 ft | 509 kts | 110° |
| 2026-05-07 12:41 | 44.72333 | 15.73884 | 39964 ft | 508 kts | 110° |
| 2026-05-07 12:41 | 44.71328 | 15.78650 | 40154 ft | 509 kts | 110° |
| 2026-05-07 12:41 | 44.70320 | 15.83419 | 40370 ft | 509 kts | 110° |
| 2026-05-07 12:41 | 44.69311 | 15.88184 | 40606 ft | 509 kts | 110° |
| 2026-05-07 12:42 | 44.68302 | 15.92939 | 40788 ft | 509 kts | 110° |
| 2026-05-07 12:42 | 44.67289 | 15.97700 | 40967 ft | 509 kts | 110° |
| 2026-05-07 12:42 | 44.65252 | 16.07229 | 41015 ft | 517 kts | 110° |
| 2026-05-07 12:43 | 44.63169 | 16.16935 | 41021 ft | 520 kts | 110° |
| 2026-05-07 12:43 | 44.61078 | 16.26649 | 41029 ft | 520 kts | 110° |
| 2026-05-07 12:44 | 44.58980 | 16.36346 | 41023 ft | 519 kts | 110° |
| 2026-05-07 12:44 | 44.56871 | 16.46043 | 41027 ft | 520 kts | 110° |
| 2026-05-07 12:45 | 44.54758 | 16.55713 | 41032 ft | 519 kts | 110° |
| 2026-05-07 12:45 | 44.52636 | 16.65377 | 41035 ft | 519 kts | 110° |
| 2026-05-07 12:46 | 44.50508 | 16.75030 | 41030 ft | 519 kts | 110° |
| 2026-05-07 12:46 | 44.48369 | 16.84686 | 41034 ft | 518 kts | 110° |
| 2026-05-07 12:47 | 44.46226 | 16.94319 | 41032 ft | 518 kts | 110° |
| 2026-05-07 12:47 | 44.44074 | 17.03943 | 41034 ft | 518 kts | 110° |
| 2026-05-07 12:48 | 44.41916 | 17.13556 | 41029 ft | 518 kts | 110° |
| 2026-05-07 12:48 | 44.39748 | 17.23169 | 41046 ft | 518 kts | 110° |
| 2026-05-07 12:49 | 44.37572 | 17.32781 | 41040 ft | 519 kts | 110° |
| 2026-05-07 12:49 | 44.35383 | 17.42398 | 41041 ft | 519 kts | 111° |
| 2026-05-07 12:50 | 44.33189 | 17.51995 | 41049 ft | 518 kts | 110° |
| 2026-05-07 12:50 | 44.30993 | 17.61563 | 41043 ft | 517 kts | 111° |
| 2026-05-07 12:51 | 44.28789 | 17.71120 | 41044 ft | 517 kts | 111° |
| 2026-05-07 12:51 | 44.26578 | 17.80664 | 41030 ft | 517 kts | 111° |
| 2026-05-07 12:52 | 44.24364 | 17.90184 | 41030 ft | 515 kts | 111° |
| 2026-05-07 12:52 | 44.22163 | 17.99608 | 41029 ft | 514 kts | 111° |
| 2026-05-07 12:53 | 44.19938 | 18.09092 | 41027 ft | 515 kts | 111° |
| 2026-05-07 12:53 | 44.17707 | 18.18564 | 41029 ft | 514 kts | 111° |
| 2026-05-07 12:54 | 44.15476 | 18.27997 | 41032 ft | 513 kts | 111° |
| 2026-05-07 12:54 | 44.13236 | 18.37424 | 41035 ft | 513 kts | 111° |
| 2026-05-07 12:55 | 44.10988 | 18.46842 | 41035 ft | 513 kts | 111° |
| 2026-05-07 12:55 | 44.08734 | 18.56250 | 41035 ft | 513 kts | 111° |
| 2026-05-07 12:56 | 44.06471 | 18.65656 | 41030 ft | 513 kts | 111° |
| 2026-05-07 12:56 | 44.04203 | 18.75042 | 41028 ft | 513 kts | 111° |
| 2026-05-07 12:57 | 44.01925 | 18.84432 | 41025 ft | 513 kts | 111° |
| 2026-05-07 12:57 | 43.99644 | 18.93797 | 41032 ft | 512 kts | 111° |
| 2026-05-07 12:58 | 43.97350 | 19.03175 | 41026 ft | 513 kts | 111° |
| 2026-05-07 12:58 | 43.95046 | 19.12554 | 41024 ft | 513 kts | 111° |
| 2026-05-07 12:59 | 43.92738 | 19.21910 | 41029 ft | 513 kts | 111° |
| 2026-05-07 12:59 | 43.90418 | 19.31277 | 41012 ft | 513 kts | 112° |
| 2026-05-07 13:00 | 43.88098 | 19.40612 | 41031 ft | 512 kts | 112° |
| 2026-05-07 13:00 | 43.85767 | 19.49945 | 41023 ft | 513 kts | 112° |
| 2026-05-07 13:01 | 43.83431 | 19.59265 | 41024 ft | 512 kts | 112° |
| 2026-05-07 13:01 | 43.81085 | 19.68586 | 41023 ft | 512 kts | 112° |
| 2026-05-07 13:02 | 43.78735 | 19.77886 | 41025 ft | 512 kts | 112° |
| 2026-05-07 13:02 | 43.76377 | 19.87181 | 41022 ft | 512 kts | 112° |
| 2026-05-07 13:03 | 43.74012 | 19.96465 | 41024 ft | 511 kts | 112° |
| 2026-05-07 13:03 | 43.71643 | 20.05728 | 41022 ft | 512 kts | 112° |
| 2026-05-07 13:04 | 43.69264 | 20.14997 | 41021 ft | 512 kts | 112° |
| 2026-05-07 13:04 | 43.66876 | 20.24259 | 41032 ft | 512 kts | 112° |
| 2026-05-07 13:05 | 43.64481 | 20.33514 | 41038 ft | 512 kts | 112° |
| 2026-05-07 13:05 | 43.62075 | 20.42774 | 41042 ft | 512 kts | 112° |
| 2026-05-07 13:06 | 43.59666 | 20.52015 | 41044 ft | 511 kts | 112° |
| 2026-05-07 13:06 | 43.57252 | 20.61239 | 41046 ft | 511 kts | 112° |
| 2026-05-07 13:07 | 43.54847 | 20.70387 | 41049 ft | 511 kts | 112° |
| 2026-05-07 13:07 | 43.52421 | 20.79583 | 41053 ft | 511 kts | 112° |
| 2026-05-07 13:08 | 43.49987 | 20.88776 | 41059 ft | 511 kts | 112° |
| 2026-05-07 13:08 | 43.47546 | 20.97952 | 41058 ft | 510 kts | 112° |
| 2026-05-07 13:09 | 43.45101 | 21.07117 | 41059 ft | 510 kts | 112° |
| 2026-05-07 13:09 | 43.42644 | 21.16291 | 41058 ft | 510 kts | 112° |
| 2026-05-07 13:10 | 43.40201 | 21.25375 | 41057 ft | 509 kts | 112° |
| 2026-05-07 13:10 | 43.37737 | 21.34505 | 41064 ft | 510 kts | 112° |
| 2026-05-07 13:11 | 43.35264 | 21.43631 | 41063 ft | 509 kts | 112° |
| 2026-05-07 13:11 | 43.32786 | 21.52744 | 41069 ft | 509 kts | 112° |
| 2026-05-07 13:12 | 43.30302 | 21.61844 | 41074 ft | 509 kts | 112° |
| 2026-05-07 13:12 | 43.27811 | 21.70937 | 41073 ft | 509 kts | 112° |
| 2026-05-07 13:13 | 43.25312 | 21.80024 | 41076 ft | 510 kts | 113° |
| 2026-05-07 13:13 | 43.22799 | 21.89129 | 41077 ft | 510 kts | 113° |
| 2026-05-07 13:14 | 43.20278 | 21.98228 | 41076 ft | 511 kts | 113° |
| 2026-05-07 13:14 | 43.17751 | 22.07319 | 41075 ft | 510 kts | 113° |
| 2026-05-07 13:15 | 43.15219 | 22.16393 | 41084 ft | 510 kts | 113° |
| 2026-05-07 13:15 | 43.12682 | 22.25450 | 41088 ft | 509 kts | 113° |
| 2026-05-07 13:16 | 43.10136 | 22.34507 | 41091 ft | 510 kts | 113° |
| 2026-05-07 13:16 | 43.07585 | 22.43550 | 41094 ft | 509 kts | 113° |
| 2026-05-07 13:17 | 43.05033 | 22.52563 | 41093 ft | 508 kts | 113° |
| 2026-05-07 13:17 | 43.02475 | 22.61565 | 41095 ft | 508 kts | 113° |
| 2026-05-07 13:18 | 42.99911 | 22.70556 | 41091 ft | 508 kts | 113° |
| 2026-05-07 13:18 | 42.97343 | 22.79530 | 41092 ft | 507 kts | 113° |
| 2026-05-07 13:19 | 42.94766 | 22.88481 | 41090 ft | 506 kts | 113° |
| 2026-05-07 13:19 | 42.92175 | 22.97421 | 41090 ft | 507 kts | 113° |
| 2026-05-07 13:20 | 42.89576 | 23.06356 | 41085 ft | 506 kts | 113° |
| 2026-05-07 13:20 | 42.86974 | 23.15281 | 41092 ft | 507 kts | 113° |
| 2026-05-07 13:21 | 42.84363 | 23.24207 | 41094 ft | 507 kts | 114° |
| 2026-05-07 13:21 | 42.81742 | 23.33131 | 41095 ft | 507 kts | 113° |
| 2026-05-07 13:22 | 42.79114 | 23.42054 | 41096 ft | 508 kts | 113° |
| 2026-05-07 13:22 | 42.76476 | 23.50976 | 41080 ft | 508 kts | 113° |
| 2026-05-07 13:23 | 42.73830 | 23.59895 | 41080 ft | 508 kts | 114° |
| 2026-05-07 13:23 | 42.71194 | 23.68751 | 41082 ft | 509 kts | 113° |
| 2026-05-07 13:24 | 42.68530 | 23.77668 | 41092 ft | 509 kts | 113° |
| 2026-05-07 13:24 | 42.65861 | 23.86575 | 41092 ft | 509 kts | 114° |
| 2026-05-07 13:25 | 42.63184 | 23.95472 | 41091 ft | 509 kts | 113° |
| 2026-05-07 13:25 | 42.60503 | 24.04356 | 41087 ft | 508 kts | 114° |
| 2026-05-07 13:26 | 42.57854 | 24.13252 | 41088 ft | 508 kts | 112° |
| 2026-05-07 13:26 | 42.55775 | 24.20778 | 41080 ft | 508 kts | 111° |
| 2026-05-07 13:27 | 42.52917 | 24.31249 | 41078 ft | 510 kts | 111° |
| 2026-05-07 13:27 | 42.50420 | 24.40253 | 41068 ft | 511 kts | 111° |
| 2026-05-07 13:28 | 42.48322 | 24.47737 | 41071 ft | 511 kts | 112° |
| 2026-05-07 13:28 | 42.45773 | 24.56780 | 41066 ft | 510 kts | 111° |
| 2026-05-07 13:29 | 42.43252 | 24.65693 | 41068 ft | 510 kts | 112° |
| 2026-05-07 13:29 | 42.40709 | 24.74655 | 41064 ft | 510 kts | 112° |
| 2026-05-07 13:30 | 42.38160 | 24.83609 | 41053 ft | 510 kts | 112° |
| 2026-05-07 13:30 | 42.35603 | 24.92561 | 41048 ft | 510 kts | 112° |
| 2026-05-07 13:31 | 42.33038 | 25.01507 | 41052 ft | 510 kts | 112° |
| 2026-05-07 13:31 | 42.30466 | 25.10444 | 41045 ft | 510 kts | 112° |
| 2026-05-07 13:32 | 42.27891 | 25.19363 | 41051 ft | 509 kts | 112° |
| 2026-05-07 13:32 | 42.25311 | 25.28270 | 41053 ft | 509 kts | 112° |
| 2026-05-07 13:33 | 42.22726 | 25.37161 | 41055 ft | 509 kts | 112° |
| 2026-05-07 13:33 | 42.20133 | 25.46048 | 41055 ft | 509 kts | 112° |
| 2026-05-07 13:34 | 42.17111 | 25.59737 | 41054 ft | 508 kts | 103° |
| 2026-05-07 13:35 | 42.15554 | 25.69028 | 41052 ft | 508 kts | 103° |
| 2026-05-07 13:35 | 42.14002 | 25.78322 | 41050 ft | 508 kts | 103° |
| 2026-05-07 13:36 | 42.12448 | 25.87592 | 41049 ft | 507 kts | 103° |
| 2026-05-07 13:36 | 42.10889 | 25.96847 | 41049 ft | 507 kts | 103° |
| 2026-05-07 13:37 | 42.09323 | 26.06097 | 41053 ft | 507 kts | 103° |
| 2026-05-07 13:37 | 42.08542 | 26.10696 | 40693 ft | 502 kts | 103° |
| 2026-05-07 13:37 | 42.07759 | 26.15292 | 39925 ft | 505 kts | 103° |
| 2026-05-07 13:37 | 42.06971 | 26.19904 | 39171 ft | 507 kts | 103° |
| 2026-05-07 13:38 | 42.06178 | 26.24534 | 38417 ft | 507 kts | 103° |
| 2026-05-07 13:38 | 42.05383 | 26.29164 | 37528 ft | 508 kts | 103° |
| 2026-05-07 13:38 | 42.04584 | 26.33803 | 36569 ft | 511 kts | 103° |
| 2026-05-07 13:38 | 42.03777 | 26.38477 | 35624 ft | 515 kts | 103° |
| 2026-05-07 13:39 | 42.02962 | 26.43184 | 34690 ft | 519 kts | 103° |
| 2026-05-07 13:39 | 42.02141 | 26.47919 | 33813 ft | 520 kts | 103° |
| 2026-05-07 13:39 | 42.01317 | 26.52653 | 32990 ft | 520 kts | 103° |
| 2026-05-07 13:39 | 42.00495 | 26.57369 | 32328 ft | 516 kts | 102° |
| 2026-05-07 13:40 | 41.99677 | 26.62041 | 31733 ft | 511 kts | 102° |
| 2026-05-07 13:40 | 41.98870 | 26.66642 | 31414 ft | 500 kts | 102° |
| 2026-05-07 13:40 | 41.98080 | 26.71137 | 31167 ft | 488 kts | 102° |
| 2026-05-07 13:40 | 41.97274 | 26.75513 | 30919 ft | 478 kts | 107° |
| 2026-05-07 13:41 | 41.95879 | 26.79494 | 30666 ft | 467 kts | 124° |
| 2026-05-07 13:41 | 41.93806 | 26.82774 | 30437 ft | 455 kts | 136° |
| 2026-05-07 13:41 | 41.91559 | 26.85697 | 30237 ft | 444 kts | 137° |
| 2026-05-07 13:41 | 41.89387 | 26.88580 | 30012 ft | 435 kts | 136° |
| 2026-05-07 13:42 | 41.87293 | 26.91471 | 29619 ft | 429 kts | 135° |
| 2026-05-07 13:42 | 41.85251 | 26.94372 | 29165 ft | 425 kts | 134° |
| 2026-05-07 13:42 | 41.83248 | 26.97265 | 28717 ft | 422 kts | 134° |
| 2026-05-07 13:42 | 41.81267 | 27.00155 | 28198 ft | 420 kts | 133° |
| 2026-05-07 13:43 | 41.79298 | 27.03039 | 27722 ft | 418 kts | 133° |
| 2026-05-07 13:43 | 41.77348 | 27.05902 | 27299 ft | 415 kts | 133° |
| 2026-05-07 13:43 | 41.75416 | 27.08740 | 26881 ft | 411 kts | 133° |
| 2026-05-07 13:43 | 41.73493 | 27.11566 | 26459 ft | 408 kts | 133° |
| 2026-05-07 13:44 | 41.71585 | 27.14368 | 26041 ft | 406 kts | 133° |
| 2026-05-07 13:44 | 41.69691 | 27.17147 | 25628 ft | 403 kts | 133° |
| 2026-05-07 13:44 | 41.67808 | 27.19909 | 25214 ft | 400 kts | 133° |
| 2026-05-07 13:44 | 41.65936 | 27.22651 | 24756 ft | 399 kts | 133° |
| 2026-05-07 13:45 | 41.64066 | 27.25389 | 24320 ft | 397 kts | 132° |
| 2026-05-07 13:45 | 41.62211 | 27.28103 | 23922 ft | 395 kts | 132° |
| 2026-05-07 13:45 | 41.60389 | 27.30765 | 23518 ft | 392 kts | 132° |
| 2026-05-07 13:45 | 41.58553 | 27.33445 | 23042 ft | 389 kts | 132° |
| 2026-05-07 13:46 | 41.56739 | 27.36092 | 22639 ft | 385 kts | 132° |
| 2026-05-07 13:46 | 41.54938 | 27.38716 | 22263 ft | 380 kts | 132° |
| 2026-05-07 13:46 | 41.53166 | 27.41296 | 21902 ft | 375 kts | 132° |
| 2026-05-07 13:46 | 41.51414 | 27.43847 | 21547 ft | 371 kts | 133° |
| 2026-05-07 13:47 | 41.49675 | 27.46375 | 21187 ft | 368 kts | 133° |
| 2026-05-07 13:47 | 41.47948 | 27.48882 | 20835 ft | 366 kts | 132° |
| 2026-05-07 13:47 | 41.46229 | 27.51377 | 20485 ft | 364 kts | 132° |
| 2026-05-07 13:47 | 41.44521 | 27.53854 | 20140 ft | 362 kts | 132° |
| 2026-05-07 13:48 | 41.42822 | 27.56315 | 19781 ft | 359 kts | 133° |
| 2026-05-07 13:48 | 41.41138 | 27.58753 | 19434 ft | 357 kts | 133° |
| 2026-05-07 13:48 | 41.39464 | 27.61174 | 19099 ft | 354 kts | 133° |
| 2026-05-07 13:48 | 41.37801 | 27.63577 | 18765 ft | 351 kts | 133° |
| 2026-05-07 13:49 | 41.36152 | 27.65959 | 18430 ft | 349 kts | 133° |
| 2026-05-07 13:49 | 41.34514 | 27.68322 | 18052 ft | 346 kts | 133° |
| 2026-05-07 13:49 | 41.32888 | 27.70666 | 17722 ft | 344 kts | 133° |
| 2026-05-07 13:49 | 41.31272 | 27.72994 | 17383 ft | 341 kts | 133° |
| 2026-05-07 13:50 | 41.29666 | 27.75306 | 17067 ft | 339 kts | 133° |
| 2026-05-07 13:50 | 41.28073 | 27.77597 | 16732 ft | 337 kts | 133° |
| 2026-05-07 13:50 | 41.26511 | 27.79842 | 16416 ft | 334 kts | 133° |
| 2026-05-07 13:50 | 41.24934 | 27.82107 | 16094 ft | 332 kts | 133° |
| 2026-05-07 13:51 | 41.23370 | 27.84351 | 15770 ft | 330 kts | 133° |
| 2026-05-07 13:51 | 41.21812 | 27.86586 | 15462 ft | 328 kts | 133° |
| 2026-05-07 13:51 | 41.20265 | 27.88803 | 15142 ft | 327 kts | 133° |
| 2026-05-07 13:51 | 41.18726 | 27.91006 | 14825 ft | 324 kts | 133° |
| 2026-05-07 13:52 | 41.17193 | 27.93199 | 14519 ft | 324 kts | 133° |
| 2026-05-07 13:52 | 41.15667 | 27.95383 | 14203 ft | 321 kts | 133° |
| 2026-05-07 13:52 | 41.14151 | 27.97548 | 13886 ft | 319 kts | 134° |
| 2026-05-07 13:52 | 41.12647 | 27.99696 | 13564 ft | 317 kts | 133° |
| 2026-05-07 13:53 | 41.11151 | 28.01829 | 13238 ft | 315 kts | 133° |
| 2026-05-07 13:53 | 41.09661 | 28.03953 | 12936 ft | 314 kts | 134° |
| 2026-05-07 13:53 | 41.08174 | 28.06071 | 12635 ft | 313 kts | 134° |
| 2026-05-07 13:53 | 41.06691 | 28.08181 | 12334 ft | 312 kts | 133° |
| 2026-05-07 13:54 | 41.05217 | 28.10278 | 12031 ft | 310 kts | 133° |
| 2026-05-07 13:54 | 41.03749 | 28.12365 | 11731 ft | 309 kts | 133° |
| 2026-05-07 13:54 | 41.02286 | 28.14444 | 11372 ft | 308 kts | 133° |
| 2026-05-07 13:54 | 41.00832 | 28.16508 | 11042 ft | 306 kts | 133° |
| 2026-05-07 13:55 | 40.99383 | 28.18564 | 10730 ft | 305 kts | 134° |
| 2026-05-07 13:55 | 40.97940 | 28.20613 | 10437 ft | 304 kts | 133° |
| 2026-05-07 13:55 | 40.96706 | 28.22868 | 10145 ft | 303 kts | 116° |
| 2026-05-07 13:55 | 40.96238 | 28.25500 | 9930 ft | 295 kts | 90° |
| 2026-05-07 13:56 | 40.96393 | 28.28144 | 9767 ft | 283 kts | 81° |
| 2026-05-07 13:56 | 40.96672 | 28.30674 | 9546 ft | 274 kts | 80° |
| 2026-05-07 13:56 | 40.96953 | 28.33136 | 9291 ft | 268 kts | 80° |
| 2026-05-07 13:56 | 40.97222 | 28.35552 | 9027 ft | 263 kts | 80° |
| 2026-05-07 13:57 | 40.97464 | 28.37947 | 8751 ft | 262 kts | 83° |
| 2026-05-07 13:57 | 40.97425 | 28.40348 | 8430 ft | 262 kts | 94° |
| 2026-05-07 13:57 | 40.97219 | 28.42753 | 8047 ft | 263 kts | 96° |
| 2026-05-07 13:57 | 40.96983 | 28.45138 | 7758 ft | 261 kts | 97° |
| 2026-05-07 13:58 | 40.96747 | 28.47516 | 7518 ft | 260 kts | 97° |
| 2026-05-07 13:58 | 40.96515 | 28.49889 | 7265 ft | 260 kts | 97° |
| 2026-05-07 13:58 | 40.96286 | 28.52261 | 7011 ft | 259 kts | 97° |
| 2026-05-07 13:58 | 40.96106 | 28.54626 | 6730 ft | 258 kts | 92° |
| 2026-05-07 13:59 | 40.96064 | 28.57003 | 6507 ft | 258 kts | 90° |
| 2026-05-07 13:59 | 40.96058 | 28.59371 | 6255 ft | 257 kts | 89° |
| 2026-05-07 13:59 | 40.96056 | 28.61738 | 6001 ft | 257 kts | 89° |
| 2026-05-07 13:59 | 40.96052 | 28.64092 | 5751 ft | 255 kts | 89° |
| 2026-05-07 14:00 | 40.96138 | 28.66423 | 5500 ft | 254 kts | 78° |
| 2026-05-07 14:00 | 40.96850 | 28.68510 | 5259 ft | 249 kts | 46° |
| 2026-05-07 14:00 | 40.98184 | 28.69903 | 5056 ft | 241 kts | 28° |
| 2026-05-07 14:00 | 40.99612 | 28.70963 | 4942 ft | 230 kts | 25° |
| 2026-05-07 14:01 | 41.00996 | 28.71943 | 4823 ft | 220 kts | 25° |
| 2026-05-07 14:01 | 41.02330 | 28.72840 | 4680 ft | 209 kts | 18° |
| 2026-05-07 14:01 | 41.03684 | 28.73263 | 4611 ft | 192 kts | 2° |
| 2026-05-07 14:01 | 41.04968 | 28.73294 | 4492 ft | 179 kts | 354° |
| 2026-05-07 14:02 | 41.06188 | 28.73238 | 4263 ft | 173 kts | 353° |
| 2026-05-07 14:02 | 41.07378 | 28.73209 | 4005 ft | 169 kts | 354° |
| 2026-05-07 14:02 | 41.08541 | 28.73186 | 3766 ft | 164 kts | 354° |
| 2026-05-07 14:02 | 41.09651 | 28.73162 | 3529 ft | 155 kts | 353° |
| 2026-05-07 14:03 | 41.10721 | 28.73136 | 3337 ft | 153 kts | 353° |
| 2026-05-07 14:03 | 41.11783 | 28.73109 | 3127 ft | 152 kts | 353° |
| 2026-05-07 14:03 | 41.12845 | 28.73084 | 2917 ft | 153 kts | 354° |
| 2026-05-07 14:03 | 41.13918 | 28.73063 | 2732 ft | 152 kts | 354° |
| 2026-05-07 14:04 | 41.14950 | 28.73037 | 2528 ft | 144 kts | 355° |
| 2026-05-07 14:04 | 41.15929 | 28.73013 | 2337 ft | 137 kts | 352° |
| 2026-05-07 14:04 | 41.16873 | 28.72985 | 2163 ft | 135 kts | 353° |
| 2026-05-07 14:04 | 41.17811 | 28.72961 | 1984 ft | 134 kts | 354° |
| 2026-05-07 14:05 | 41.18750 | 28.72943 | 1812 ft | 135 kts | 355° |
| 2026-05-07 14:05 | 41.19690 | 28.72925 | 1629 ft | 135 kts | 355° |
| 2026-05-07 14:05 | 41.20625 | 28.72900 | 1422 ft | 133 kts | 355° |
| 2026-05-07 14:05 | 41.21549 | 28.72881 | 1293 ft | 134 kts | 355° |
| 2026-05-07 14:06 | 41.22490 | 28.72861 | 1164 ft | 136 kts | 356° |
| 2026-05-07 14:06 | 41.23432 | 28.72841 | 961 ft | 134 kts | 356° |
| 2026-05-07 14:06 | 41.24359 | 28.72808 | 775 ft | 134 kts | 360° |
| 2026-05-07 14:06 | 41.25290 | 28.72784 | 590 ft | 133 kts | 3° |
| 2026-05-07 14:07 | 41.26208 | 28.72770 | 404 ft | 131 kts | 4° |
| 2026-05-07 14:07 | 41.27102 | 28.72747 | 354 ft | 123 kts | 359° |
| 2026-05-07 14:07 | 41.27870 | 28.72739 | 336 ft | 87 kts | 358° |
| 2026-05-07 14:07 | 41.28233 | 28.72741 | 336 ft | 38 kts | 13° |
| 2026-05-07 14:08 | 41.28412 | 28.72836 | 335 ft | 17 kts | 31° |
| 2026-05-07 14:08 | 41.28460 | 28.72882 | 336 ft | 0 kts | 51° |
| 2026-05-07 14:08 | 41.28461 | 28.72884 | 336 ft | 1 kts | 51° |
| 2026-05-07 14:08 | 41.28463 | 28.72897 | 336 ft | 1 kts | 82° |
| 2026-05-07 14:09 | 41.28460 | 28.72914 | 335 ft | 3 kts | 113° |
| 2026-05-07 14:09 | 41.28430 | 28.72946 | 337 ft | 9 kts | 155° |
| 2026-05-07 14:09 | 41.28349 | 28.72955 | 338 ft | 14 kts | 178° |
| 2026-05-07 14:09 | 41.28247 | 28.72960 | 336 ft | 10 kts | 179° |
| 2026-05-07 14:10 | 41.28184 | 28.72961 | 340 ft | 12 kts | 179° |
| 2026-05-07 14:10 | 41.28073 | 28.72963 | 335 ft | 19 kts | 179° |
| 2026-05-07 14:10 | 41.27929 | 28.72966 | 336 ft | 22 kts | 179° |
| 2026-05-07 14:10 | 41.27782 | 28.72968 | 335 ft | 17 kts | 179° |
| 2026-05-07 14:11 | 41.27690 | 28.72970 | 339 ft | 10 kts | 179° |
| 2026-05-07 14:11 | 41.27606 | 28.72971 | 337 ft | 14 kts | 179° |
| 2026-05-07 14:11 | 41.27496 | 28.72973 | 336 ft | 18 kts | 179° |
| 2026-05-07 14:11 | 41.27362 | 28.72976 | 337 ft | 21 kts | 179° |
| 2026-05-07 14:12 | 41.27205 | 28.72981 | 335 ft | 24 kts | 178° |
| 2026-05-07 14:12 | 41.27039 | 28.72985 | 337 ft | 24 kts | 179° |
| 2026-05-07 14:12 | 41.26915 | 28.72988 | 335 ft | 13 kts | 179° |
| 2026-05-07 14:12 | 41.26869 | 28.73035 | 335 ft | 8 kts | 106° |
| 2026-05-07 14:13 | 41.26868 | 28.73125 | 337 ft | 12 kts | 89° |
| 2026-05-07 14:13 | 41.26868 | 28.73252 | 337 ft | 16 kts | 89° |
| 2026-05-07 14:13 | 41.26870 | 28.73410 | 337 ft | 17 kts | 89° |
| 2026-05-07 14:13 | 41.26870 | 28.73497 | 336 ft | 7 kts | 93° |
| 2026-05-07 14:14 | 41.26856 | 28.73516 | 335 ft | 5 kts | 149° |
| 2026-05-07 14:14 | 41.26805 | 28.73528 | 336 ft | 7 kts | 177° |
| 2026-05-07 14:14 | 41.26786 | 28.73528 | 340 ft | 0 kts | 179° |